Time,TemperatureF,DewpointF,PressureIn,WindDirection,WindDirectionDegrees,WindSpeedMPH,WindSpeedGustMPH,Humidity,HourlyPrecipIn,Conditions,Clouds,dailyrainin,SolarRadiationWatts/m^2,SoftwareType,DateUTC
2013-09-30 00:03:00,47.8,45.3,30.00,SSW,198,0.0,0.0,91,0.00,CLR,,0.00,0.0,WeatherDisplay:10.37,2013-09-30 05:03:00,
2013-09-30 00:08:00,47.7,45.2,30.00,SSW,198,0.0,0.0,91,0.00,CLR,,0.00,0.0,WeatherDisplay:10.37,2013-09-30 05:08:00,
2013-09-30 00:13:00,47.6,45.1,30.00,SSW,198,0.0,0.0,91,0.00,CLR,,0.00,0.0,WeatherDisplay:10.37,2013-09-30 05:13:00,
2013-09-30 00:18:00,47.6,45.1,30.00,SSW,198,0.0,0.0,91,0.00,CLR,,0.00,0.0,WeatherDisplay:10.37,2013-09-30 05:18:00,
2013-09-30 00:23:00,47.5,45.0,30.00,SSW,198,0.0,0.0,91,0.00,CLR,,0.00,0.0,WeatherDisplay:10.37,2013-09-30 05:23:00,
2013-09-30 00:28:00,47.5,45.3,30.00,SSW,198,0.0,0.0,92,0.00,CLR,,0.00,0.0,WeatherDisplay:10.37,2013-09-30 05:28:00,
2013-09-30 00:33:00,47.4,45.2,30.00,SSW,198,0.0,0.0,92,0.00,CLR,,0.00,0.0,WeatherDisplay:10.37,2013-09-30 05:33:00,
2013-09-30 00:38:00,47.3,45.1,30.00,SSW,198,0.0,0.0,92,0.00,CLR,,0.00,0.0,WeatherDisplay:10.37,2013-09-30 05:38:00,
2013-09-30 00:43:00,47.3,45.1,30.00,SSW,198,0.0,0.0,92,0.00,CLR,,0.00,0.0,WeatherDisplay:10.37,2013-09-30 05:43:00,
2013-09-30 00:48:00,47.3,45.1,30.00,SSW,198,0.0,0.0,92,0.00,CLR,,0.00,0.0,WeatherDisplay:10.37,2013-09-30 05:48:00,
2013-09-30 00:53:00,47.3,45.1,30.00,SSW,198,0.0,0.0,92,0.00,CLR,,0.00,0.0,WeatherDisplay:10.37,2013-09-30 05:53:00,
2013-09-30 00:58:00,47.3,45.1,30.00,SSW,198,0.0,0.0,92,0.00,CLR,,0.00,0.0,WeatherDisplay:10.37,2013-09-30 05:58:00,
2013-09-30 01:03:00,47.3,45.1,30.00,SSW,198,0.0,0.0,92,0.00,CLR,,0.00,0.0,WeatherDisplay:10.37,2013-09-30 06:03:00,
2013-09-30 01:08:00,47.3,45.1,30.00,SSW,198,0.0,0.0,92,0.00,CLR,,0.00,0.0,WeatherDisplay:10.37,2013-09-30 06:08:00,
2013-09-30 01:13:00,47.2,45.0,30.00,SSW,198,0.0,0.0,92,0.00,CLR,,0.00,0.0,WeatherDisplay:10.37,2013-09-30 06:13:00,
2013-09-30 01:18:00,47.2,45.3,30.00,SSW,198,0.0,0.0,93,0.00,CLR,,0.00,0.0,WeatherDisplay:10.37,2013-09-30 06:18:00,
2013-09-30 01:23:00,47.2,45.3,30.00,SSW,198,0.0,0.0,93,0.00,CLR,,0.00,0.0,WeatherDisplay:10.37,2013-09-30 06:23:00,
2013-09-30 01:28:00,47.1,45.2,30.00,SSW,198,0.0,0.0,93,0.00,CLR,,0.00,0.0,WeatherDisplay:10.37,2013-09-30 06:28:00,
2013-09-30 01:33:00,47.1,45.2,30.00,SSW,198,0.0,0.0,93,0.00,CLR,,0.00,0.0,WeatherDisplay:10.37,2013-09-30 06:33:00,
2013-09-30 01:38:00,47.2,45.3,29.99,SSW,198,0.0,0.0,93,0.00,CLR,,0.00,0.0,WeatherDisplay:10.37,2013-09-30 06:38:00,
2013-09-30 01:43:00,47.2,45.3,30.00,SSW,198,0.0,0.0,93,0.00,CLR,,0.00,0.0,WeatherDisplay:10.37,2013-09-30 06:43:00,
2013-09-30 01:48:00,47.2,45.3,29.99,SSW,198,0.0,0.0,93,0.00,CLR,,0.00,0.0,WeatherDisplay:10.37,2013-09-30 06:48:00,
2013-09-30 01:53:00,47.1,45.2,29.99,SSW,198,0.0,0.0,93,0.00,CLR,,0.00,0.0,WeatherDisplay:10.37,2013-09-30 06:53:00,
2013-09-30 01:58:00,47.1,45.2,29.99,SSW,198,0.0,0.0,93,0.00,CLR,,0.00,0.0,WeatherDisplay:10.37,2013-09-30 06:58:00,
2013-09-30 02:03:00,47.0,45.1,29.99,SSW,198,0.0,0.0,93,0.00,CLR,,0.00,0.0,WeatherDisplay:10.37,2013-09-30 07:03:00,
2013-09-30 02:08:00,47.0,45.1,29.99,SSW,198,0.0,0.0,93,0.00,CLR,,0.00,0.0,WeatherDisplay:10.37,2013-09-30 07:08:00,
2013-09-30 02:13:00,46.9,45.0,29.99,SSW,198,0.0,0.0,93,0.00,CLR,,0.00,0.0,WeatherDisplay:10.37,2013-09-30 07:13:00,
2013-09-30 02:18:00,46.8,44.9,29.99,SSW,198,0.0,0.0,93,0.00,CLR,,0.00,0.0,WeatherDisplay:10.37,2013-09-30 07:18:00,
2013-09-30 02:23:00,46.7,44.8,29.99,SSW,198,0.0,0.0,93,0.00,CLR,,0.00,0.0,WeatherDisplay:10.37,2013-09-30 07:23:00,
2013-09-30 02:28:00,46.6,44.7,29.99,SSW,198,0.0,0.0,93,0.00,CLR,,0.00,0.0,WeatherDisplay:10.37,2013-09-30 07:28:00,
2013-09-30 02:33:00,46.5,44.6,29.99,SSW,198,0.0,0.0,93,0.00,CLR,,0.00,0.0,WeatherDisplay:10.37,2013-09-30 07:33:00,
2013-09-30 02:38:00,46.4,44.5,29.99,SSW,198,0.0,0.0,93,0.00,CLR,,0.00,0.0,WeatherDisplay:10.37,2013-09-30 07:38:00,
2013-09-30 02:43:00,46.3,44.4,29.99,SSW,198,0.0,0.0,93,0.00,CLR,,0.00,0.0,WeatherDisplay:10.37,2013-09-30 07:43:00,
2013-09-30 02:48:00,46.2,44.3,29.99,SSW,198,0.0,0.0,93,0.00,CLR,,0.00,0.0,WeatherDisplay:10.37,2013-09-30 07:48:00,
2013-09-30 02:53:00,46.1,44.2,29.99,SSW,198,0.0,0.0,93,0.00,CLR,,0.00,0.0,WeatherDisplay:10.37,2013-09-30 07:53:00,
2013-09-30 02:58:00,46.1,44.5,29.99,SSW,198,0.0,0.0,94,0.00,CLR,,0.00,0.0,WeatherDisplay:10.37,2013-09-30 07:58:00,
2013-09-30 03:03:00,46.1,44.5,29.99,SSW,198,0.0,0.0,94,0.00,CLR,,0.00,0.0,WeatherDisplay:10.37,2013-09-30 08:03:00,
2013-09-30 03:08:00,45.9,44.0,29.99,SSW,198,0.0,0.0,93,0.00,CLR,,0.00,0.0,WeatherDisplay:10.37,2013-09-30 08:08:00,
2013-09-30 03:13:00,45.9,44.0,29.99,SSW,198,0.0,0.0,93,0.00,CLR,,0.00,0.0,WeatherDisplay:10.37,2013-09-30 08:13:00,
2013-09-30 03:18:00,45.8,43.9,29.99,SSW,198,0.0,0.0,93,0.00,CLR,,0.00,0.0,WeatherDisplay:10.37,2013-09-30 08:18:00,
2013-09-30 03:23:00,45.7,44.1,29.99,SSW,198,0.0,0.0,94,0.00,CLR,,0.00,0.0,WeatherDisplay:10.37,2013-09-30 08:23:00,
2013-09-30 03:28:00,45.6,44.0,29.99,SSW,198,0.0,0.0,94,0.00,CLR,,0.00,0.0,WeatherDisplay:10.37,2013-09-30 08:28:00,
2013-09-30 03:33:00,45.5,43.9,29.99,SSW,198,0.0,0.0,94,0.00,CLR,,0.00,0.0,WeatherDisplay:10.37,2013-09-30 08:33:00,
2013-09-30 03:38:00,45.5,43.9,29.99,SSW,198,0.0,0.0,94,0.00,CLR,,0.00,0.0,WeatherDisplay:10.37,2013-09-30 08:38:00,
2013-09-30 03:43:00,45.4,43.8,29.99,SSW,198,0.0,0.0,94,0.00,CLR,,0.00,0.0,WeatherDisplay:10.37,2013-09-30 08:43:00,
2013-09-30 03:48:00,45.4,43.8,29.99,SSW,198,0.0,0.0,94,0.00,CLR,,0.00,0.0,WeatherDisplay:10.37,2013-09-30 08:48:00,
2013-09-30 03:53:00,45.4,43.8,29.99,SSW,198,0.0,0.0,94,0.00,CLR,,0.00,0.0,WeatherDisplay:10.37,2013-09-30 08:53:00,
2013-09-30 03:58:00,45.4,43.8,29.99,SSW,198,0.0,0.0,94,0.00,CLR,,0.00,0.0,WeatherDisplay:10.37,2013-09-30 08:58:00,
2013-09-30 04:03:00,45.4,43.8,29.99,SSW,198,0.0,0.0,94,0.00,CLR,,0.00,0.0,WeatherDisplay:10.37,2013-09-30 09:03:00,
2013-09-30 04:08:00,45.5,43.9,29.99,SSW,198,0.0,0.0,94,0.00,CLR,,0.00,0.0,WeatherDisplay:10.37,2013-09-30 09:08:00,
2013-09-30 04:13:00,45.5,43.9,29.99,SSW,198,0.0,0.0,94,0.00,CLR,,0.00,0.0,WeatherDisplay:10.37,2013-09-30 09:13:00,
2013-09-30 04:18:00,45.4,43.8,29.99,SSW,198,0.0,0.0,94,0.00,CLR,,0.00,0.0,WeatherDisplay:10.37,2013-09-30 09:18:00,
2013-09-30 04:23:00,45.3,43.7,29.99,SSW,198,0.0,0.0,94,0.00,CLR,,0.00,0.0,WeatherDisplay:10.37,2013-09-30 09:23:00,
2013-09-30 04:28:00,45.1,43.5,29.99,SSW,198,0.0,0.0,94,0.00,CLR,,0.00,0.0,WeatherDisplay:10.37,2013-09-30 09:28:00,
2013-09-30 04:33:00,45.1,43.5,29.99,SSW,198,0.0,0.0,94,0.00,CLR,,0.00,0.0,WeatherDisplay:10.37,2013-09-30 09:33:00,
2013-09-30 04:38:00,45.0,43.4,29.99,SSW,198,0.0,0.0,94,0.00,CLR,,0.00,0.0,WeatherDisplay:10.37,2013-09-30 09:38:00,
2013-09-30 04:43:00,45.0,43.4,29.99,SSW,198,0.0,0.0,94,0.00,CLR,,0.00,0.0,WeatherDisplay:10.37,2013-09-30 09:43:00,
2013-09-30 04:48:00,45.1,43.5,29.99,SSW,198,0.0,0.0,94,0.00,CLR,,0.00,0.0,WeatherDisplay:10.37,2013-09-30 09:48:00,
2013-09-30 04:53:00,45.0,43.4,29.99,SSW,198,0.0,0.0,94,0.00,CLR,,0.00,0.0,WeatherDisplay:10.37,2013-09-30 09:53:00,
2013-09-30 04:58:00,44.9,43.3,29.99,SSW,198,0.0,0.0,94,0.00,CLR,,0.00,0.0,WeatherDisplay:10.37,2013-09-30 09:58:00,
2013-09-30 05:03:00,44.9,43.3,29.99,SSW,198,0.0,0.0,94,0.00,CLR,,0.00,0.0,WeatherDisplay:10.37,2013-09-30 10:03:00,
2013-09-30 05:08:00,44.8,43.2,29.99,SSW,198,0.0,0.0,94,0.00,CLR,,0.00,0.0,WeatherDisplay:10.37,2013-09-30 10:08:00,
2013-09-30 05:13:00,44.7,43.1,29.99,SSW,198,0.0,0.0,94,0.00,CLR,,0.00,0.0,WeatherDisplay:10.37,2013-09-30 10:13:00,
2013-09-30 05:18:00,44.7,43.1,29.99,SSW,198,0.0,0.0,94,0.00,CLR,,0.00,0.0,WeatherDisplay:10.37,2013-09-30 10:18:00,
2013-09-30 05:23:00,44.6,43.0,30.00,SSW,198,0.0,0.0,94,0.00,CLR,,0.00,0.0,WeatherDisplay:10.37,2013-09-30 10:23:00,
2013-09-30 05:28:00,44.6,43.0,29.99,SSW,198,0.0,0.0,94,0.00,CLR,,0.00,0.0,WeatherDisplay:10.37,2013-09-30 10:28:00,
2013-09-30 05:33:00,44.4,42.8,29.99,SSW,198,0.0,0.0,94,0.00,CLR,,0.00,0.0,WeatherDisplay:10.37,2013-09-30 10:33:00,
2013-09-30 05:38:00,44.3,42.7,29.99,SSW,198,0.0,0.0,94,0.00,CLR,,0.00,0.0,WeatherDisplay:10.37,2013-09-30 10:38:00,
2013-09-30 05:43:00,44.3,42.7,30.00,SSW,198,0.0,0.0,94,0.00,CLR,,0.00,0.0,WeatherDisplay:10.37,2013-09-30 10:43:00,
2013-09-30 05:48:00,44.2,42.6,30.00,SSW,198,0.0,0.0,94,0.00,CLR,,0.00,0.0,WeatherDisplay:10.37,2013-09-30 10:48:00,
2013-09-30 05:53:00,44.2,42.6,30.00,SSW,198,0.0,0.0,94,0.00,CLR,,0.00,0.0,WeatherDisplay:10.37,2013-09-30 10:53:00,
2013-09-30 05:58:00,44.2,42.6,30.00,SSW,198,0.0,0.0,94,0.00,CLR,,0.00,0.0,WeatherDisplay:10.37,2013-09-30 10:58:00,
2013-09-30 06:03:00,44.2,42.9,30.00,SSW,198,0.0,0.0,95,0.00,CLR,,0.00,0.0,WeatherDisplay:10.37,2013-09-30 11:03:00,
2013-09-30 06:08:00,44.2,42.9,30.00,SSW,198,0.0,0.0,95,0.00,CLR,,0.00,0.0,WeatherDisplay:10.37,2013-09-30 11:08:00,
2013-09-30 06:13:00,44.2,42.9,30.00,SSW,198,0.0,0.0,95,0.00,CLR,,0.00,0.0,WeatherDisplay:10.37,2013-09-30 11:13:00,
2013-09-30 06:18:00,44.1,42.5,30.00,SSW,198,0.0,0.0,94,0.00,CLR,,0.00,0.0,WeatherDisplay:10.37,2013-09-30 11:18:00,
2013-09-30 06:23:00,43.9,42.3,30.00,SSW,198,0.0,0.0,94,0.00,OVC,,0.00,0.0,WeatherDisplay:10.37,2013-09-30 11:23:00,
2013-09-30 06:28:00,43.9,42.3,29.99,SSW,198,0.0,0.0,94,0.00,OVC,,0.00,0.0,WeatherDisplay:10.37,2013-09-30 11:28:00,
2013-09-30 06:33:00,43.9,42.3,29.99,SSW,198,0.0,0.0,94,0.00,OVC,,0.00,0.0,WeatherDisplay:10.37,2013-09-30 11:33:00,
2013-09-30 06:38:00,43.9,42.6,29.99,SSW,198,0.0,0.0,95,0.00,OVC,,0.00,0.0,WeatherDisplay:10.37,2013-09-30 11:38:00,
2013-09-30 06:43:00,43.9,42.6,29.99,SSW,198,0.0,0.0,95,0.00,OVC,,0.00,0.0,WeatherDisplay:10.37,2013-09-30 11:43:00,
2013-09-30 06:48:00,44.1,42.8,29.99,SSW,198,0.0,0.0,95,0.00,OVC,,0.00,0.0,WeatherDisplay:10.37,2013-09-30 11:48:00,
2013-09-30 06:53:00,44.1,42.8,29.99,SSW,198,0.0,0.0,95,0.00,OVC,,0.00,0.0,WeatherDisplay:10.37,2013-09-30 11:53:00,
2013-09-30 06:58:00,44.2,42.9,29.99,SSW,198,0.0,0.0,95,0.00,BKN,,0.00,5.0,WeatherDisplay:10.37,2013-09-30 11:58:00,
2013-09-30 07:03:00,44.4,43.1,29.99,SSW,198,0.0,0.0,95,0.00,BKN,,0.00,7.0,WeatherDisplay:10.37,2013-09-30 12:03:00,
2013-09-30 07:08:00,44.5,43.2,30.00,SSW,198,0.0,0.0,95,0.00,BKN,,0.00,7.0,WeatherDisplay:10.37,2013-09-30 12:08:00,
2013-09-30 07:13:00,44.5,43.2,29.99,SSW,198,0.0,0.0,95,0.00,BKN,,0.00,9.0,WeatherDisplay:10.37,2013-09-30 12:13:00,
2013-09-30 07:18:00,44.6,43.3,29.99,SSW,198,0.0,0.0,95,0.00,BKN,,0.00,11.0,WeatherDisplay:10.37,2013-09-30 12:18:00,
2013-09-30 07:23:00,44.7,43.4,30.00,SSW,198,0.0,0.0,95,0.00,BKN,,0.00,11.0,WeatherDisplay:10.37,2013-09-30 12:23:00,
2013-09-30 07:28:00,44.8,43.5,29.99,SSW,198,0.0,0.0,95,0.00,BKN,,0.00,12.0,WeatherDisplay:10.37,2013-09-30 12:28:00,
2013-09-30 07:33:00,45.1,43.8,29.99,SSW,198,0.0,0.0,95,0.00,BKN,,0.00,12.0,WeatherDisplay:10.37,2013-09-30 12:33:00,
2013-09-30 07:38:00,45.3,44.0,29.98,SSW,198,0.0,0.0,95,0.00,BKN,,0.00,14.0,WeatherDisplay:10.37,2013-09-30 12:38:00,
2013-09-30 07:43:00,45.6,44.3,29.98,SSW,198,0.0,0.0,95,0.00,BKN,,0.00,14.0,WeatherDisplay:10.37,2013-09-30 12:43:00,
2013-09-30 07:48:00,45.7,44.4,29.98,SSW,198,0.0,0.0,95,0.00,BKN,,0.00,16.0,WeatherDisplay:10.37,2013-09-30 12:48:00,
2013-09-30 07:53:00,45.9,44.5,29.98,SSW,198,0.0,0.0,95,0.00,BKN,,0.00,16.0,WeatherDisplay:10.37,2013-09-30 12:53:00,
2013-09-30 07:58:00,46.1,44.7,29.98,SSW,198,0.0,0.0,95,0.00,BKN,,0.00,16.0,WeatherDisplay:10.37,2013-09-30 12:58:00,
2013-09-30 08:03:00,46.3,44.9,29.98,SSW,198,0.0,0.0,95,0.00,BKN,,0.00,18.0,WeatherDisplay:10.37,2013-09-30 13:03:00,
2013-09-30 08:08:00,46.7,45.3,29.98,SSW,198,0.0,0.0,95,0.00,BKN,,0.00,18.0,WeatherDisplay:10.37,2013-09-30 13:08:00,
2013-09-30 08:13:00,47.0,45.6,29.99,SSW,198,0.0,0.0,95,0.00,BKN,,0.00,19.0,WeatherDisplay:10.37,2013-09-30 13:13:00,
2013-09-30 08:18:00,47.2,45.8,29.99,SSW,198,0.0,0.0,95,0.00,BKN,,0.00,21.0,WeatherDisplay:10.37,2013-09-30 13:18:00,
2013-09-30 08:23:00,47.4,46.3,29.99,SSW,198,0.0,0.0,96,0.00,BKN,,0.00,23.0,WeatherDisplay:10.37,2013-09-30 13:23:00,
2013-09-30 08:28:00,47.6,46.5,29.99,SSW,198,0.0,0.0,96,0.00,BKN,,0.00,25.0,WeatherDisplay:10.37,2013-09-30 13:28:00,
2013-09-30 08:33:00,47.9,46.5,29.99,SSW,198,0.0,0.0,95,0.00,BKN,,0.00,26.0,WeatherDisplay:10.37,2013-09-30 13:33:00,
2013-09-30 08:38:00,48.2,47.1,29.98,SSW,198,0.0,0.0,96,0.00,BKN,,0.00,30.0,WeatherDisplay:10.37,2013-09-30 13:38:00,
2013-09-30 08:43:00,48.8,47.7,29.99,SSW,198,0.0,0.0,96,0.00,BKN,,0.00,44.0,WeatherDisplay:10.37,2013-09-30 13:43:00,
2013-09-30 08:48:00,49.3,48.2,29.99,SSW,198,0.0,0.0,96,0.00,BKN,,0.00,35.0,WeatherDisplay:10.37,2013-09-30 13:48:00,
2013-09-30 08:53:00,49.7,48.6,29.99,SSW,198,0.0,0.0,96,0.00,BKN,,0.00,42.0,WeatherDisplay:10.37,2013-09-30 13:53:00,
2013-09-30 08:58:00,49.9,48.8,29.98,SSW,198,0.0,0.0,96,0.00,BKN,,0.00,40.0,WeatherDisplay:10.37,2013-09-30 13:58:00,
2013-09-30 09:03:00,50.3,49.2,29.98,SSW,198,0.0,0.0,96,0.00,BKN,,0.00,49.0,WeatherDisplay:10.37,2013-09-30 14:03:00,
2013-09-30 09:08:00,50.7,49.6,29.98,SSW,198,0.0,0.0,96,0.00,BKN,,0.00,53.0,WeatherDisplay:10.37,2013-09-30 14:08:00,
2013-09-30 09:13:00,51.3,49.9,29.98,SSW,198,1.2,0.0,95,0.00,BKN,,0.00,53.0,WeatherDisplay:10.37,2013-09-30 14:13:00,
2013-09-30 09:18:00,52.1,50.7,29.98,SSW,198,0.0,0.0,95,0.00,BKN,,0.00,60.0,WeatherDisplay:10.37,2013-09-30 14:18:00,
2013-09-30 09:23:00,52.9,51.2,29.98,SSW,198,0.0,0.0,94,0.00,BKN,,0.00,77.0,WeatherDisplay:10.37,2013-09-30 14:23:00,
2013-09-30 09:28:00,53.6,51.6,29.97,SSW,198,1.2,1.2,93,0.00,BKN,,0.00,86.0,WeatherDisplay:10.37,2013-09-30 14:28:00,
2013-09-30 09:33:00,54.6,51.7,29.97,ESE,108,1.2,0.0,90,0.00,BKN,,0.00,84.0,WeatherDisplay:10.37,2013-09-30 14:33:00,
2013-09-30 09:39:00,55.8,50.1,29.97,NE,36,1.2,0.0,81,0.00,BKN,,0.00,67.0,WeatherDisplay:10.37,2013-09-30 14:39:00,
2013-09-30 09:44:00,56.9,50.1,29.97,NNE,26,1.2,1.2,78,0.00,BKN,,0.00,58.0,WeatherDisplay:10.37,2013-09-30 14:44:00,
2013-09-30 09:49:00,57.9,50.0,29.98,NNE,13,1.2,1.2,75,0.00,BKN,,0.00,69.0,WeatherDisplay:10.37,2013-09-30 14:49:00,
2013-09-30 09:54:00,58.6,50.0,29.97,West,262,1.2,0.0,73,0.00,BKN,,0.00,74.0,WeatherDisplay:10.37,2013-09-30 14:54:00,
2013-09-30 09:59:00,59.1,49.7,29.98,West,273,1.2,0.0,71,0.00,BKN,,0.00,510.0,WeatherDisplay:10.37,2013-09-30 14:59:00,
2013-09-30 10:04:00,60.1,49.1,29.97,NE,56,3.5,3.5,67,0.00,SCT,,0.00,519.0,WeatherDisplay:10.37,2013-09-30 15:04:00,
2013-09-30 10:09:00,61.3,48.6,29.97,NNW,342,1.2,0.0,63,0.00,CLR,,0.00,536.0,WeatherDisplay:10.37,2013-09-30 15:09:00,
2013-09-30 10:14:00,62.1,49.4,29.97,NNE,12,2.3,0.0,63,0.00,CLR,,0.00,401.0,WeatherDisplay:10.37,2013-09-30 15:14:00,
2013-09-30 10:19:00,62.6,48.1,29.97,WSW,251,3.0,3.0,59,0.00,SCT,,0.00,95.0,WeatherDisplay:10.37,2013-09-30 15:19:00,
2013-09-30 10:24:00,63.0,48.0,29.97,WSW,257,3.5,3.5,58,0.00,BKN,,0.00,76.0,WeatherDisplay:10.37,2013-09-30 15:24:00,
2013-09-30 10:29:00,63.4,48.8,29.97,SSW,197,5.0,5.0,59,0.00,BKN,,0.00,214.0,WeatherDisplay:10.37,2013-09-30 15:29:00,
2013-09-30 10:34:00,63.8,48.7,29.97,SW,217,4.6,4.6,58,0.00,SCT,,0.00,594.0,WeatherDisplay:10.37,2013-09-30 15:34:00,
2013-09-30 10:39:00,64.6,49.5,29.96,North,5,1.2,0.0,58,0.00,CLR,,0.00,512.0,WeatherDisplay:10.37,2013-09-30 15:39:00,
2013-09-30 10:44:00,65.0,49.9,29.96,South,186,0.0,0.0,58,0.00,CLR,,0.00,585.0,WeatherDisplay:10.37,2013-09-30 15:44:00,
2013-09-30 10:49:00,65.5,50.8,29.95,West,264,2.0,2.0,59,0.00,CLR,,0.00,621.0,WeatherDisplay:10.37,2013-09-30 15:49:00,
2013-09-30 10:54:00,65.6,49.0,29.95,ENE,62,11.5,11.5,55,0.00,CLR,,0.00,278.0,WeatherDisplay:10.37,2013-09-30 15:54:00,
2013-09-30 10:59:00,65.7,49.1,29.95,NE,36,4.6,4.6,55,0.00,SCT,,0.00,169.0,WeatherDisplay:10.37,2013-09-30 15:59:00,
2013-09-30 11:04:00,65.7,48.6,29.95,East,79,4.6,4.6,54,0.00,BKN,,0.00,144.0,WeatherDisplay:10.37,2013-09-30 16:04:00,
2013-09-30 11:09:00,65.8,50.1,29.95,SE,144,1.0,1.0,57,0.00,BKN,,0.00,83.0,WeatherDisplay:10.37,2013-09-30 16:09:00,
2013-09-30 11:14:00,65.9,48.8,29.95,ESE,117,5.8,5.8,54,0.00,BKN,,0.00,91.0,WeatherDisplay:10.37,2013-09-30 16:14:00,
2013-09-30 11:19:00,66.1,48.0,29.95,SSW,204,3.5,3.5,52,0.00,BKN,,0.00,128.0,WeatherDisplay:10.37,2013-09-30 16:19:00,
2013-09-30 11:24:00,66.3,49.6,29.95,North,352,1.2,0.0,55,0.00,BKN,,0.00,285.0,WeatherDisplay:10.37,2013-09-30 16:24:00,
2013-09-30 11:29:00,66.5,48.8,29.95,ENE,69,5.8,5.8,53,0.00,BKN,,0.00,635.0,WeatherDisplay:10.37,2013-09-30 16:29:00,
2013-09-30 11:34:00,67.3,51.1,29.95,WNW,302,1.2,1.2,56,0.00,FEW,,0.00,656.0,WeatherDisplay:10.37,2013-09-30 16:34:00,
2013-09-30 11:39:00,67.8,49.0,29.95,WSW,244,5.0,5.0,51,0.00,CLR,,0.00,654.0,WeatherDisplay:10.37,2013-09-30 16:39:00,
2013-09-30 11:44:00,67.8,50.0,29.95,ENE,75,4.6,4.6,53,0.00,CLR,,0.00,596.0,WeatherDisplay:10.37,2013-09-30 16:44:00,
2013-09-30 11:49:00,67.8,50.5,29.96,West,281,3.5,0.0,54,0.00,CLR,,0.00,631.0,WeatherDisplay:10.37,2013-09-30 16:49:00,
2013-09-30 11:54:00,67.8,51.0,29.95,SSW,212,4.0,4.0,55,0.00,CLR,,0.00,643.0,WeatherDisplay:10.37,2013-09-30 16:54:00,
2013-09-30 11:59:00,68.3,50.0,29.95,WNW,287,3.0,3.0,52,0.00,CLR,,0.00,545.0,WeatherDisplay:10.37,2013-09-30 16:59:00,
2013-09-30 12:04:00,68.0,48.7,29.95,SSE,165,3.5,3.5,50,0.00,FEW,,0.00,621.0,WeatherDisplay:10.37,2013-09-30 17:04:00,
2013-09-30 12:09:00,68.2,49.4,29.95,WSW,252,2.3,2.3,51,0.00,FEW,,0.00,592.0,WeatherDisplay:10.37,2013-09-30 17:09:00,
2013-09-30 12:14:00,68.7,50.4,29.94,ENE,73,1.2,1.2,52,0.00,FEW,,0.00,682.0,WeatherDisplay:10.37,2013-09-30 17:14:00,
2013-09-30 12:19:00,68.9,49.5,29.94,ESE,123,3.5,3.5,50,0.00,CLR,,0.00,633.0,WeatherDisplay:10.37,2013-09-30 17:19:00,
2013-09-30 12:24:00,68.8,49.4,29.94,ENE,63,1.2,1.2,50,0.00,SCT,,0.00,225.0,WeatherDisplay:10.37,2013-09-30 17:24:00,
2013-09-30 12:29:00,68.7,50.9,29.94,NE,43,0.0,0.1,53,0.00,BKN,,0.00,686.0,WeatherDisplay:10.37,2013-09-30 17:29:00,
2013-09-30 12:34:00,69.3,53.4,29.94,ENE,77,1.2,1.2,57,0.00,SCT,,0.00,682.0,WeatherDisplay:10.37,2013-09-30 17:34:00,
2013-09-30 12:39:00,69.7,50.8,29.94,NNE,15,4.0,4.0,51,0.00,CLR,,0.00,645.0,WeatherDisplay:10.37,2013-09-30 17:39:00,
2013-09-30 12:44:00,69.6,50.1,29.93,SSW,192,4.6,4.6,50,0.00,CLR,,0.00,608.0,WeatherDisplay:10.37,2013-09-30 17:44:00,
2013-09-30 12:49:00,69.8,50.3,29.93,West,267,4.6,4.6,50,0.00,CLR,,0.00,617.0,WeatherDisplay:10.37,2013-09-30 17:49:00,
2013-09-30 12:54:00,70.1,51.1,29.93,ESE,113,1.2,1.2,51,0.00,CLR,,0.00,744.0,WeatherDisplay:10.37,2013-09-30 17:54:00,
2013-09-30 12:59:00,70.7,52.7,29.92,ENE,67,2.3,0.0,53,0.00,CLR,,0.00,731.0,WeatherDisplay:10.37,2013-09-30 17:59:00,
2013-09-30 13:04:00,71.2,51.6,29.92,WSW,242,4.6,0.0,50,0.00,CLR,,0.00,780.0,WeatherDisplay:10.37,2013-09-30 18:04:00,
2013-09-30 13:09:00,70.7,51.1,29.92,WNW,300,5.8,5.8,50,0.00,CLR,,0.00,580.0,WeatherDisplay:10.37,2013-09-30 18:09:00,
2013-09-30 13:14:00,70.7,52.7,29.92,NNW,341,4.6,4.6,53,0.00,CLR,,0.00,557.0,WeatherDisplay:10.37,2013-09-30 18:14:00,
2013-09-30 13:19:00,70.5,51.5,29.91,ENE,60,1.2,1.2,51,0.00,FEW,,0.00,534.0,WeatherDisplay:10.37,2013-09-30 18:19:00,
2013-09-30 13:24:00,70.2,52.8,29.91,South,182,4.0,4.0,54,0.00,FEW,,0.00,441.0,WeatherDisplay:10.37,2013-09-30 18:24:00,
2013-09-30 13:29:00,70.8,52.3,29.91,South,173,0.0,0.0,52,0.00,FEW,,0.00,773.0,WeatherDisplay:10.37,2013-09-30 18:29:00,
2013-09-30 13:34:00,71.5,52.9,29.91,ENE,69,0.0,0.0,52,0.00,CLR,,0.00,740.0,WeatherDisplay:10.37,2013-09-30 18:34:00,
2013-09-30 13:39:00,71.4,50.7,29.91,North,5,3.5,3.5,48,0.00,CLR,,0.00,712.0,WeatherDisplay:10.37,2013-09-30 18:39:00,
2013-09-30 13:44:00,71.6,53.0,29.90,West,268,2.0,2.0,52,0.00,CLR,,0.00,694.0,WeatherDisplay:10.37,2013-09-30 18:44:00,
2013-09-30 13:49:00,71.5,51.9,29.90,West,260,6.0,6.0,50,0.00,CLR,,0.00,652.0,WeatherDisplay:10.37,2013-09-30 18:49:00,
2013-09-30 13:54:00,71.8,52.2,29.90,West,278,2.3,2.3,50,0.00,CLR,,0.00,629.0,WeatherDisplay:10.37,2013-09-30 18:54:00,
2013-09-30 13:59:00,72.4,55.8,29.89,WSW,250,3.0,3.0,56,0.00,CLR,,0.00,659.0,WeatherDisplay:10.37,2013-09-30 18:59:00,
2013-09-30 14:04:00,72.5,54.9,29.89,SW,219,4.6,0.0,54,0.00,CLR,,0.00,689.0,WeatherDisplay:10.37,2013-09-30 19:04:00,
2013-09-30 14:09:00,73.0,52.1,29.89,NNE,26,2.3,2.3,48,0.00,CLR,,0.00,557.0,WeatherDisplay:10.37,2013-09-30 19:09:00,
2013-09-30 14:14:00,72.7,52.4,29.89,ENE,73,3.5,3.5,49,0.00,CLR,,0.00,619.0,WeatherDisplay:10.37,2013-09-30 19:14:00,
2013-09-30 14:19:00,72.9,52.6,29.89,SW,215,4.6,4.6,49,0.00,CLR,,0.00,656.0,WeatherDisplay:10.37,2013-09-30 19:19:00,
2013-09-30 14:24:00,73.1,53.4,29.89,ENE,73,2.3,2.3,50,0.00,CLR,,0.00,643.0,WeatherDisplay:10.37,2013-09-30 19:24:00,
2013-09-30 14:29:00,73.2,51.2,29.89,WSW,240,9.0,9.0,46,0.00,CLR,,0.00,573.0,WeatherDisplay:10.37,2013-09-30 19:29:00,
2013-09-30 14:34:00,72.1,51.9,29.89,West,281,3.5,3.5,49,0.00,CLR,,0.00,610.0,WeatherDisplay:10.37,2013-09-30 19:34:00,
2013-09-30 14:39:00,72.2,52.0,29.88,SSW,211,1.0,1.0,49,0.00,CLR,,0.00,585.0,WeatherDisplay:10.37,2013-09-30 19:39:00,
2013-09-30 14:44:00,72.6,52.3,29.88,SW,232,3.5,3.5,49,0.00,CLR,,0.00,559.0,WeatherDisplay:10.37,2013-09-30 19:44:00,
2013-09-30 14:49:00,72.6,54.5,29.88,ENE,57,3.5,3.5,53,0.00,CLR,,0.00,504.0,WeatherDisplay:10.37,2013-09-30 19:49:00,
2013-09-30 14:54:00,72.6,51.8,29.88,WNW,283,2.3,2.3,48,0.00,CLR,,0.00,483.0,WeatherDisplay:10.37,2013-09-30 19:54:00,
2013-09-30 14:59:00,72.4,53.8,29.88,South,191,0.0,1.7,52,0.00,FEW,,0.00,503.0,WeatherDisplay:10.37,2013-09-30 19:59:00,
2013-09-30 15:04:00,72.6,52.3,29.88,West,260,3.5,3.5,49,0.00,CLR,,0.00,594.0,WeatherDisplay:10.37,2013-09-30 20:04:00,
2013-09-30 15:09:00,73.2,55.0,29.88,WSW,238,5.0,5.0,53,0.00,CLR,,0.00,642.0,WeatherDisplay:10.37,2013-09-30 20:09:00,
2013-09-30 15:14:00,73.5,53.7,29.87,SW,215,1.2,1.2,50,0.00,CLR,,0.00,606.0,WeatherDisplay:10.37,2013-09-30 20:14:00,
2013-09-30 15:19:00,73.7,53.9,29.87,ESE,121,4.6,4.6,50,0.00,CLR,,0.00,547.0,WeatherDisplay:10.37,2013-09-30 20:19:00,
2013-09-30 15:24:00,73.7,53.9,29.87,SSW,210,1.2,0.0,50,0.00,CLR,,0.00,513.0,WeatherDisplay:10.37,2013-09-30 20:24:00,
2013-09-30 15:29:00,73.2,52.3,29.87,ENE,59,3.5,3.5,48,0.00,CLR,,0.00,497.0,WeatherDisplay:10.37,2013-09-30 20:29:00,
2013-09-30 15:34:00,73.3,53.0,29.87,West,267,1.2,1.2,49,0.00,CLR,,0.00,555.0,WeatherDisplay:10.37,2013-09-30 20:34:00,
2013-09-30 15:39:00,74.0,53.6,29.86,SW,229,1.2,1.2,49,0.00,CLR,,0.00,501.0,WeatherDisplay:10.37,2013-09-30 20:39:00,
2013-09-30 15:44:00,74.0,54.7,29.86,West,271,0.0,0.3,51,0.00,CLR,,0.00,538.0,WeatherDisplay:10.37,2013-09-30 20:44:00,
2013-09-30 15:49:00,74.3,53.3,29.86,SW,215,3.5,3.5,48,0.00,CLR,,0.00,508.0,WeatherDisplay:10.37,2013-09-30 20:49:00,
2013-09-30 15:54:00,74.3,53.9,29.86,SSE,165,3.5,3.5,49,0.00,CLR,,0.00,436.0,WeatherDisplay:10.37,2013-09-30 20:54:00,
2013-09-30 15:59:00,73.7,54.4,29.86,SW,223,0.0,0.1,51,0.00,CLR,,0.00,441.0,WeatherDisplay:10.37,2013-09-30 20:59:00,
2013-09-30 16:04:00,73.6,53.8,29.86,WNW,288,1.2,0.0,50,0.00,CLR,,0.00,404.0,WeatherDisplay:10.37,2013-09-30 21:04:00,
2013-09-30 16:09:00,73.6,53.8,29.85,SW,224,1.2,1.2,50,0.00,CLR,,0.00,457.0,WeatherDisplay:10.37,2013-09-30 21:09:00,
2013-09-30 16:14:00,73.6,52.7,29.85,South,186,4.6,4.6,48,0.00,CLR,,0.00,434.0,WeatherDisplay:10.37,2013-09-30 21:14:00,
2013-09-30 16:19:00,73.6,53.3,29.85,ENE,69,3.5,0.0,49,0.00,CLR,,0.00,392.0,WeatherDisplay:10.37,2013-09-30 21:19:00,
2013-09-30 16:24:00,73.0,53.8,29.85,SE,146,2.3,0.0,51,0.00,CLR,,0.00,392.0,WeatherDisplay:10.37,2013-09-30 21:24:00,
2013-09-30 16:29:00,73.2,54.0,29.85,NW,325,1.0,1.0,51,0.00,CLR,,0.00,329.0,WeatherDisplay:10.37,2013-09-30 21:29:00,
2013-09-30 16:34:00,73.5,53.7,29.85,NNE,19,2.3,0.0,50,0.00,CLR,,0.00,353.0,WeatherDisplay:10.37,2013-09-30 21:34:00,
2013-09-30 16:39:00,72.9,53.2,29.85,WNW,282,4.6,4.6,50,0.00,CLR,,0.00,350.0,WeatherDisplay:10.37,2013-09-30 21:39:00,
2013-09-30 16:44:00,73.0,53.8,29.85,SSW,210,5.8,5.8,51,0.00,CLR,,0.00,325.0,WeatherDisplay:10.37,2013-09-30 21:44:00,
2013-09-30 16:49:00,73.2,55.0,29.85,SSW,211,0.0,0.0,53,0.00,CLR,,0.00,306.0,WeatherDisplay:10.37,2013-09-30 21:49:00,
2013-09-30 16:54:00,72.9,54.2,29.85,ENE,60,0.0,0.0,52,0.00,CLR,,0.00,130.0,WeatherDisplay:10.37,2013-09-30 21:54:00,
2013-09-30 16:59:00,72.5,53.3,29.84,NE,46,3.5,3.5,51,0.00,FEW,,0.00,40.0,WeatherDisplay:10.37,2013-09-30 21:59:00,
2013-09-30 17:04:00,71.8,53.2,29.85,SSE,154,2.3,0.0,52,0.00,BKN,,0.00,33.0,WeatherDisplay:10.37,2013-09-30 22:04:00,
2013-09-30 17:09:00,71.3,53.3,29.84,WSW,253,2.3,2.3,53,0.00,BKN,,0.00,32.0,WeatherDisplay:10.37,2013-09-30 22:09:00,
2013-09-30 17:14:00,70.8,53.3,29.84,ENE,61,1.2,1.2,54,0.00,BKN,,0.00,28.0,WeatherDisplay:10.37,2013-09-30 22:14:00,
2013-09-30 17:19:00,70.4,53.0,29.84,ENE,77,1.2,0.0,54,0.00,BKN,,0.00,30.0,WeatherDisplay:10.37,2013-09-30 22:19:00,
2013-09-30 17:24:00,69.8,52.9,29.84,West,265,1.2,1.2,55,0.00,BKN,,0.00,28.0,WeatherDisplay:10.37,2013-09-30 22:24:00,
2013-09-30 17:29:00,69.6,52.2,29.84,ENE,72,5.8,5.8,54,0.00,BKN,,0.00,28.0,WeatherDisplay:10.37,2013-09-30 22:29:00,
2013-09-30 17:34:00,69.3,52.9,29.84,NE,56,0.0,0.0,56,0.00,BKN,,0.00,26.0,WeatherDisplay:10.37,2013-09-30 22:34:00,
2013-09-30 17:39:00,68.8,51.0,29.83,West,268,2.3,2.3,53,0.00,BKN,,0.00,25.0,WeatherDisplay:10.37,2013-09-30 22:39:00,
2013-09-30 17:44:00,68.4,51.1,29.84,NNE,21,3.5,3.5,54,0.00,BKN,,0.00,23.0,WeatherDisplay:10.37,2013-09-30 22:44:00,
2013-09-30 17:49:00,68.2,50.9,29.84,ENE,73,3.5,3.5,54,0.00,BKN,,0.00,23.0,WeatherDisplay:10.37,2013-09-30 22:49:00,
2013-09-30 17:54:00,68.0,52.7,29.84,East,88,1.0,1.0,58,0.00,BKN,,0.00,23.0,WeatherDisplay:10.37,2013-09-30 22:54:00,
2013-09-30 17:59:00,67.5,52.7,29.84,East,88,0.0,0.0,59,0.00,BKN,,0.00,23.0,WeatherDisplay:10.37,2013-09-30 22:59:00,
2013-09-30 18:04:00,66.9,51.2,29.84,East,88,0.0,0.0,57,0.00,BKN,,0.00,19.0,WeatherDisplay:10.37,2013-09-30 23:04:00,
2013-09-30 18:09:00,66.6,51.4,29.84,SW,230,0.0,0.0,58,0.00,BKN,,0.00,16.0,WeatherDisplay:10.37,2013-09-30 23:09:00,
2013-09-30 18:14:00,66.2,51.4,29.84,SW,229,0.0,0.0,59,0.00,BKN,,0.00,14.0,WeatherDisplay:10.37,2013-09-30 23:14:00,
2013-09-30 18:19:00,65.9,51.6,29.84,NW,310,0.0,0.0,60,0.00,BKN,,0.00,12.0,WeatherDisplay:10.37,2013-09-30 23:19:00,
2013-09-30 18:24:00,65.6,50.9,29.84,NW,310,0.0,0.0,59,0.00,BKN,,0.00,11.0,WeatherDisplay:10.37,2013-09-30 23:24:00,
2013-09-30 18:29:00,65.3,51.5,29.85,South,191,0.0,0.0,61,0.00,BKN,,0.00,7.0,WeatherDisplay:10.37,2013-09-30 23:29:00,
2013-09-30 18:34:00,64.9,51.6,29.85,South,191,0.0,0.0,62,0.00,SCT,,0.00,5.0,WeatherDisplay:10.37,2013-09-30 23:34:00,
2013-09-30 18:39:00,64.5,51.2,29.85,South,191,0.0,0.0,62,0.00,OVC,,0.00,5.0,WeatherDisplay:10.37,2013-09-30 23:39:00,
2013-09-30 18:44:00,64.1,50.4,29.85,South,191,0.0,0.0,61,0.00,OVC,,0.00,0.0,WeatherDisplay:10.37,2013-09-30 23:44:00,
2013-09-30 18:49:00,63.6,50.3,29.85,South,191,0.0,0.0,62,0.00,OVC,,0.00,0.0,WeatherDisplay:10.37,2013-09-30 23:49:00,
2013-09-30 18:54:00,63.0,50.2,29.85,South,191,0.0,0.0,63,0.00,OVC,,0.00,0.0,WeatherDisplay:10.37,2013-09-30 23:54:00,
2013-09-30 18:59:00,62.5,50.6,29.85,South,191,0.0,0.0,65,0.00,OVC,,0.00,0.0,WeatherDisplay:10.37,2013-09-30 23:59:00,
2013-09-30 19:04:00,62.1,51.0,29.85,South,191,0.0,0.0,67,0.00,CLR,,0.00,0.0,WeatherDisplay:10.37,2013-10-01 00:04:00,
2013-09-30 19:09:00,61.6,50.9,29.85,South,191,0.0,0.0,68,0.00,CLR,,0.00,0.0,WeatherDisplay:10.37,2013-10-01 00:09:00,
2013-09-30 19:14:00,61.2,50.6,29.85,South,191,0.0,0.0,68,0.00,CLR,,0.00,0.0,WeatherDisplay:10.37,2013-10-01 00:14:00,
2013-09-30 19:19:00,60.6,50.8,29.85,South,191,0.0,0.0,70,0.00,CLR,,0.00,0.0,WeatherDisplay:10.37,2013-10-01 00:19:00,
2013-09-30 19:24:00,60.2,51.1,29.85,South,191,0.0,0.0,72,0.00,CLR,,0.00,0.0,WeatherDisplay:10.37,2013-10-01 00:24:00,
2013-09-30 19:29:00,59.6,51.3,29.85,South,191,0.0,0.0,74,0.00,CLR,,0.00,0.0,WeatherDisplay:10.37,2013-10-01 00:29:00,
2013-09-30 19:34:00,59.1,50.8,29.85,South,191,0.0,0.0,74,0.00,CLR,,0.00,0.0,WeatherDisplay:10.37,2013-10-01 00:34:00,
2013-09-30 19:39:00,58.7,50.4,29.85,South,191,0.0,0.0,74,0.00,CLR,,0.00,0.0,WeatherDisplay:10.37,2013-10-01 00:39:00,
2013-09-30 19:44:00,58.5,50.6,29.84,South,191,0.0,0.0,75,0.00,CLR,,0.00,0.0,WeatherDisplay:10.37,2013-10-01 00:44:00,
2013-09-30 19:49:00,58.3,50.0,29.85,South,191,0.0,0.0,74,0.00,CLR,,0.00,0.0,WeatherDisplay:10.37,2013-10-01 00:49:00,
2013-09-30 19:54:00,58.4,50.1,29.84,SSW,192,0.0,0.0,74,0.00,CLR,,0.00,0.0,WeatherDisplay:10.37,2013-10-01 00:54:00,
2013-09-30 19:59:00,58.5,49.9,29.84,SSW,192,0.0,0.0,73,0.00,CLR,,0.00,0.0,WeatherDisplay:10.37,2013-10-01 00:59:00,
2013-09-30 20:04:00,58.6,50.0,29.84,SSW,192,0.0,0.0,73,0.00,CLR,,0.00,0.0,WeatherDisplay:10.37,2013-10-01 01:04:00,
2013-09-30 20:09:00,58.7,50.1,29.84,North,360,0.0,0.0,73,0.00,CLR,,0.00,0.0,WeatherDisplay:10.37,2013-10-01 01:09:00,
2013-09-30 20:14:00,58.8,50.2,29.84,North,360,0.0,0.0,73,0.00,CLR,,0.00,0.0,WeatherDisplay:10.37,2013-10-01 01:14:00,
2013-09-30 20:19:00,58.9,49.9,29.84,ENE,65,0.0,0.0,72,0.00,CLR,,0.00,0.0,WeatherDisplay:10.37,2013-10-01 01:19:00,
2013-09-30 20:24:00,59.1,49.7,29.84,ENE,68,0.0,0.0,71,0.00,CLR,,0.00,0.0,WeatherDisplay:10.37,2013-10-01 01:24:00,
2013-09-30 20:29:00,59.1,49.3,29.84,ENE,69,0.0,0.0,70,0.00,CLR,,0.00,0.0,WeatherDisplay:10.37,2013-10-01 01:29:00,
2013-09-30 20:34:00,59.4,49.2,29.84,ENE,72,0.0,0.0,69,0.00,CLR,,0.00,0.0,WeatherDisplay:10.37,2013-10-01 01:34:00,
2013-09-30 20:39:00,59.8,49.6,29.84,East,96,0.0,0.0,69,0.00,CLR,,0.00,0.0,WeatherDisplay:10.37,2013-10-01 01:39:00,
2013-09-30 20:44:00,60.1,49.1,29.84,SE,139,1.2,0.0,67,0.00,CLR,,0.00,0.0,WeatherDisplay:10.37,2013-10-01 01:44:00,
2013-09-30 20:49:00,60.5,49.5,29.84,SSE,159,0.0,0.1,67,0.00,CLR,,0.00,0.0,WeatherDisplay:10.37,2013-10-01 01:49:00,
2013-09-30 20:54:00,60.9,49.5,29.84,ENE,73,0.0,0.0,66,0.00,CLR,,0.00,0.0,WeatherDisplay:10.37,2013-10-01 01:54:00,
2013-09-30 20:59:00,61.1,49.2,29.84,South,172,1.2,0.0,65,0.00,CLR,,0.00,0.0,WeatherDisplay:10.37,2013-10-01 01:59:00,
2013-09-30 21:04:00,61.1,49.7,29.84,NNE,26,0.0,0.0,66,0.00,CLR,,0.00,0.0,WeatherDisplay:10.37,2013-10-01 02:04:00,
2013-09-30 21:09:00,61.1,49.7,29.84,SSE,149,1.2,1.2,66,0.00,CLR,,0.00,0.0,WeatherDisplay:10.37,2013-10-01 02:09:00,
2013-09-30 21:14:00,61.1,49.7,29.84,ENE,74,0.0,1.1,66,0.00,CLR,,0.00,0.0,WeatherDisplay:10.37,2013-10-01 02:14:00,
2013-09-30 21:19:00,61.1,49.7,29.84,NE,43,3.5,3.5,66,0.00,CLR,,0.00,0.0,WeatherDisplay:10.37,2013-10-01 02:19:00,
2013-09-30 21:24:00,61.2,50.2,29.84,NE,43,2.3,0.0,67,0.00,CLR,,0.00,0.0,WeatherDisplay:10.37,2013-10-01 02:24:00,
2013-09-30 21:29:00,61.0,50.0,29.84,NE,49,1.2,0.0,67,0.00,CLR,,0.00,0.0,WeatherDisplay:10.37,2013-10-01 02:29:00,
2013-09-30 21:34:00,60.8,49.8,29.84,East,80,0.0,0.0,67,0.00,CLR,,0.00,0.0,WeatherDisplay:10.37,2013-10-01 02:34:00,
2013-09-30 21:39:00,60.7,50.1,29.84,ESE,106,1.2,0.0,68,0.00,CLR,,0.00,0.0,WeatherDisplay:10.37,2013-10-01 02:39:00,
2013-09-30 21:44:00,60.6,49.6,29.84,ENE,75,0.0,0.0,67,0.00,CLR,,0.00,0.0,WeatherDisplay:10.37,2013-10-01 02:44:00,
2013-09-30 21:49:00,60.5,49.9,29.83,SW,217,0.0,0.4,68,0.00,CLR,,0.00,0.0,WeatherDisplay:10.37,2013-10-01 02:49:00,
2013-09-30 21:54:00,60.5,49.9,29.84,NE,40,0.0,0.0,68,0.00,CLR,,0.00,0.0,WeatherDisplay:10.37,2013-10-01 02:54:00,
2013-09-30 21:59:00,60.4,49.8,29.84,NE,41,0.0,2.0,68,0.00,CLR,,0.00,0.0,WeatherDisplay:10.37,2013-10-01 02:59:00,
2013-09-30 22:04:00,60.2,50.0,29.83,NE,34,0.0,1.0,69,0.00,CLR,,0.00,0.0,WeatherDisplay:10.37,2013-10-01 03:04:00,
2013-09-30 22:09:00,59.9,49.7,29.83,SW,235,0.0,0.1,69,0.00,CLR,,0.00,0.0,WeatherDisplay:10.37,2013-10-01 03:09:00,
2013-09-30 22:14:00,59.8,49.6,29.83,SW,218,0.0,0.1,69,0.00,CLR,,0.00,0.0,WeatherDisplay:10.37,2013-10-01 03:14:00,
2013-09-30 22:19:00,59.7,49.9,29.84,SW,218,0.0,0.0,70,0.00,CLR,,0.00,0.0,WeatherDisplay:10.37,2013-10-01 03:19:00,
2013-09-30 22:24:00,59.5,49.7,29.84,South,175,5.8,0.0,70,0.00,CLR,,0.00,0.0,WeatherDisplay:10.37,2013-10-01 03:24:00,
2013-09-30 22:29:00,59.2,49.8,29.84,SSW,194,0.0,0.0,71,0.00,CLR,,0.00,0.0,WeatherDisplay:10.37,2013-10-01 03:29:00,
2013-09-30 22:34:00,59.1,50.1,29.84,SSW,194,0.0,0.0,72,0.00,CLR,,0.00,0.0,WeatherDisplay:10.37,2013-10-01 03:34:00,
2013-09-30 22:39:00,59.1,50.5,29.84,SSW,194,0.0,0.0,73,0.00,CLR,,0.00,0.0,WeatherDisplay:10.37,2013-10-01 03:39:00,
2013-09-30 22:44:00,58.8,50.2,29.84,SSW,194,0.0,0.0,73,0.00,CLR,,0.00,0.0,WeatherDisplay:10.37,2013-10-01 03:44:00,
2013-09-30 22:49:00,58.4,50.1,29.84,SSW,194,0.0,0.0,74,0.00,CLR,,0.00,0.0,WeatherDisplay:10.37,2013-10-01 03:49:00,
2013-09-30 22:54:00,58.1,50.2,29.84,SSW,194,0.0,0.0,75,0.00,CLR,,0.00,0.0,WeatherDisplay:10.37,2013-10-01 03:54:00,
2013-09-30 22:59:00,57.7,49.8,29.85,SSW,194,0.0,0.0,75,0.00,CLR,,0.00,0.0,WeatherDisplay:10.37,2013-10-01 03:59:00,
2013-09-30 23:01:00,57.6,49.7,29.85,SSW,194,0.0,0.0,75,0.00,CLR,,0.00,0.0,WeatherDisplay:10.37,2013-10-01 04:01:00,
2013-09-30 23:02:00,57.6,49.7,29.85,SSW,194,0.0,0.0,75,0.00,CLR,,0.00,0.0,WeatherDisplay:10.37,2013-10-01 04:02:00,
2013-09-30 23:07:00,57.2,49.7,29.85,SSW,194,0.0,0.0,76,0.00,CLR,,0.00,0.0,WeatherDisplay:10.37,2013-10-01 04:07:00,
2013-09-30 23:12:00,56.9,49.4,29.85,SSW,194,0.0,0.0,76,0.00,CLR,,0.00,0.0,WeatherDisplay:10.37,2013-10-01 04:12:00,
2013-09-30 23:17:00,56.6,49.1,29.85,SSW,194,0.0,0.0,76,0.00,CLR,,0.00,0.0,WeatherDisplay:10.37,2013-10-01 04:17:00,
2013-09-30 23:22:00,56.3,49.2,29.85,SSW,194,0.0,0.0,77,0.00,CLR,,0.00,0.0,WeatherDisplay:10.37,2013-10-01 04:22:00,
2013-09-30 23:27:00,56.1,49.0,29.85,SSW,194,0.0,0.0,77,0.00,CLR,,0.00,0.0,WeatherDisplay:10.37,2013-10-01 04:27:00,
2013-09-30 23:32:00,55.9,49.1,29.85,SSW,194,0.0,0.0,78,0.00,CLR,,0.00,0.0,WeatherDisplay:10.37,2013-10-01 04:32:00,
2013-09-30 23:37:00,55.6,49.2,29.86,SSW,194,0.0,0.0,79,0.00,CLR,,0.00,0.0,WeatherDisplay:10.37,2013-10-01 04:37:00,
2013-09-30 23:42:00,55.3,48.9,29.85,SSW,194,0.0,0.0,79,0.00,CLR,,0.00,0.0,WeatherDisplay:10.37,2013-10-01 04:42:00,
2013-09-30 23:47:00,55.1,48.7,29.85,SSW,194,0.0,0.0,79,0.00,CLR,,0.00,0.0,WeatherDisplay:10.37,2013-10-01 04:47:00,
2013-09-30 23:52:00,54.9,48.8,29.85,SSW,194,0.0,0.0,80,0.00,CLR,,0.00,0.0,WeatherDisplay:10.37,2013-10-01 04:52:00,
2013-09-30 23:57:00,54.7,48.6,29.85,SSW,194,0.0,0.0,80,0.00,CLR,,0.00,0.0,WeatherDisplay:10.37,2013-10-01 04:57:00,